Time;durP1;ratioP1;P1;durP2;ratioP2;P2;SDS_P1;SDS_P2;PMS_P1;PMS_P2;Temp;Humidity;BMP_temperature;BMP_pressure;BME280_temperature;BME280_humidity;BME280_pressure;Samples;Min_cycle;Max_cycle;Signal;HPM_P1;HPM_P2
2024/02/16 00:02:18;;;;;;;5.87;4.13;;;;;;;-146.29;100.00;59205.81;5034675;28;20746;-69
2024/02/16 00:04:43;;;;;;;6.50;4.20;;;;;;;-146.29;100.00;59205.81;5030792;28;20175;-70
2024/02/16 00:07:09;;;;;;;5.07;4.47;;;;;;;-146.29;100.00;59205.81;5035714;28;20887;-70
2024/02/16 00:09:34;;;;;;;8.23;4.87;;;;;;;-146.29;100.00;59205.81;5032404;28;20258;-68
2024/02/16 00:12:00;;;;;;;5.10;4.50;;;;;;;-146.29;100.00;59205.81;5038668;28;20267;-68
2024/02/16 00:14:25;;;;;;;7.10;4.00;;;;;;;-146.29;100.00;59205.81;5028729;28;20726;-69
2024/02/16 00:16:50;;;;;;;6.60;4.30;;;;;;;-146.29;100.00;59205.81;5031295;28;20642;-69
2024/02/16 00:19:16;;;;;;;7.70;4.87;;;;;;;-146.29;100.00;59205.81;5035333;28;20263;-69
2024/02/16 00:21:42;;;;;;;5.70;4.80;;;;;;;-146.29;100.00;59205.81;5039888;28;20272;-68
2024/02/16 00:24:08;;;;;;;6.73;4.10;;;;;;;-146.29;100.00;59205.81;5031263;28;20183;-69
2024/02/16 00:26:33;;;;;;;6.23;4.27;;;;;;;-146.29;100.00;59205.81;5039154;28;20450;-70
2024/02/16 00:28:59;;;;;;;6.60;4.10;;;;;;;-146.29;100.00;59205.81;5030815;28;20430;-70
2024/02/16 00:31:24;;;;;;;8.93;4.93;;;;;;;-146.29;100.00;59205.81;5031666;28;20262;-68
2024/02/16 00:33:50;;;;;;;6.80;4.20;;;;;;;-146.29;100.00;59205.81;5031663;28;20262;-69
2024/02/16 00:36:15;;;;;;;4.53;3.77;;;;;;;-146.29;100.00;59205.81;5028891;28;20812;-69
2024/02/16 00:38:40;;;;;;;6.10;4.40;;;;;;;-146.29;100.00;59205.81;5029113;28;20184;-69
2024/02/16 00:41:07;;;;;;;4.07;3.63;;;;;;;-146.29;100.00;59205.81;5042962;28;20241;-69
2024/02/16 00:43:32;;;;;;;5.20;4.00;;;;;;;-146.29;100.00;59205.81;5032245;28;20193;-68
2024/02/16 00:45:58;;;;;;;4.87;3.60;;;;;;;-146.29;100.00;59205.81;5032537;28;20470;-69
2024/02/16 00:48:24;;;;;;;5.33;4.00;;;;;;;-146.29;100.00;59205.81;5028967;28;20183;-70
2024/02/16 00:50:49;;;;;;;9.60;4.00;;;;;;;-146.29;100.00;59205.81;5035374;28;20176;-69
2024/02/16 00:53:14;;;;;;;7.27;3.90;;;;;;;-146.29;100.00;59205.81;5030433;28;20183;-69
2024/02/16 00:55:41;;;;;;;6.10;4.00;;;;;;;-146.29;100.00;59205.81;5032288;28;20235;-68
2024/02/16 00:58:07;;;;;;;5.33;3.80;;;;;;;-146.29;100.00;59205.81;5038404;28;20180;-67
2024/02/16 01:00:32;;;;;;;4.40;3.57;;;;;;;-146.29;100.00;59205.81;5029929;28;20476;-69
2024/02/16 01:02:58;;;;;;;4.23;3.53;;;;;;;-146.29;100.00;59205.81;5030341;28;20176;-70
2024/02/16 01:05:23;;;;;;;5.30;4.20;;;;;;;-146.29;100.00;59205.81;5030528;28;20254;-70
2024/02/16 01:07:49;;;;;;;5.07;3.60;;;;;;;-146.29;100.00;59205.81;5030224;28;20175;-69
2024/02/16 01:10:14;;;;;;;6.70;4.33;;;;;;;-146.29;100.00;59205.81;5032132;28;20602;-69
2024/02/16 01:12:39;;;;;;;3.77;3.37;;;;;;;-146.29;100.00;59205.81;5034948;28;20271;-70
2024/02/16 01:15:06;;;;;;;4.97;4.10;;;;;;;-146.29;100.00;59205.81;5035466;28;20183;-70
2024/02/16 01:17:32;;;;;;;4.07;3.23;;;;;;;-146.29;100.00;59205.81;5037974;28;20192;-70
2024/02/16 01:19:58;;;;;;;7.87;4.03;;;;;;;-146.29;100.00;59205.81;5034708;28;20420;-70
2024/02/16 01:22:23;;;;;;;12.63;4.00;;;;;;;-146.29;100.00;59205.81;5039181;28;20414;-70
2024/02/16 01:24:49;;;;;;;6.77;4.00;;;;;;;-146.29;100.00;59205.81;5028584;28;20183;-69
2024/02/16 01:27:16;;;;;;;3.80;3.40;;;;;;;-146.29;100.00;59205.81;5042027;28;20198;-70
2024/02/16 01:29:41;;;;;;;11.00;5.13;;;;;;;-146.29;100.00;59205.81;5036884;28;20175;-70
2024/02/16 01:32:07;;;;;;;6.10;3.80;;;;;;;-146.29;100.00;59205.81;5041997;28;20438;-70
2024/02/16 01:34:32;;;;;;;5.83;3.80;;;;;;;-146.29;100.00;59205.81;5039581;28;20652;-69
2024/02/16 01:36:58;;;;;;;10.40;3.83;;;;;;;-146.29;100.00;59205.81;5032933;28;20195;-69
2024/02/16 01:39:24;;;;;;;6.93;4.10;;;;;;;-146.29;100.00;59205.81;5035459;28;20179;-69
2024/02/16 01:41:49;;;;;;;4.67;3.90;;;;;;;-146.29;100.00;59205.81;5033239;28;20210;-69
2024/02/16 01:44:16;;;;;;;7.53;3.97;;;;;;;-146.29;100.00;59205.81;5034628;28;20262;-69
2024/02/16 01:46:42;;;;;;;8.37;4.70;;;;;;;-146.29;100.00;59205.81;5029457;28;20214;-69
2024/02/16 01:49:08;;;;;;;5.50;4.67;;;;;;;-146.29;100.00;59205.81;5032609;28;20418;-69
2024/02/16 01:51:33;;;;;;;12.43;4.40;;;;;;;-146.29;100.00;59205.81;5044332;28;20171;-69
2024/02/16 01:54:00;;;;;;;4.47;3.80;;;;;;;-146.29;100.00;59205.81;5029329;28;20845;-68
2024/02/16 01:56:26;;;;;;;6.23;3.77;;;;;;;-146.29;100.00;59205.81;5029695;28;20195;-69
2024/02/16 01:58:52;;;;;;;7.10;4.63;;;;;;;-146.29;100.00;59205.81;5028632;28;20415;-69
2024/02/16 02:01:17;;;;;;;7.10;4.57;;;;;;;-146.29;100.00;59205.81;5031977;28;20176;-69
2024/02/16 02:03:43;;;;;;;4.93;4.00;;;;;;;-146.29;100.00;59205.81;5031656;28;20263;-69
2024/02/16 02:06:08;;;;;;;7.43;4.37;;;;;;;-146.29;100.00;59205.81;5028446;28;20214;-70
2024/02/16 02:08:33;;;;;;;4.37;3.60;;;;;;;-146.29;100.00;59205.81;5029056;28;20656;-69
2024/02/16 02:10:59;;;;;;;7.17;4.40;;;;;;;-146.29;100.00;59205.81;5033662;28;20193;-69
2024/02/16 02:13:24;;;;;;;5.40;3.87;;;;;;;-146.29;100.00;59205.81;5032087;28;20215;-70
2024/02/16 02:15:50;;;;;;;5.43;4.27;;;;;;;-146.29;100.00;59205.81;5032626;28;20593;-68
2024/02/16 02:18:15;;;;;;;5.77;5.00;;;;;;;-146.29;100.00;59205.81;5040539;28;20179;-69
2024/02/16 02:20:41;;;;;;;5.67;5.10;;;;;;;-146.29;100.00;59205.81;5038548;28;20617;-69
2024/02/16 02:23:06;;;;;;;6.77;4.83;;;;;;;-146.29;100.00;59205.81;5029644;28;20194;-69
2024/02/16 02:25:32;;;;;;;8.70;5.33;;;;;;;-146.29;100.00;59205.81;5052234;28;20237;-69
2024/02/16 02:27:58;;;;;;;5.07;4.43;;;;;;;-146.29;100.00;59205.81;5038981;28;20182;-69
2024/02/16 02:30:23;;;;;;;7.67;5.63;;;;;;;-146.29;100.00;59205.81;5032900;28;20302;-68
2024/02/16 02:32:51;;;;;;;5.87;4.70;;;;;;;-146.29;100.00;59205.81;5027910;28;20326;-67
2024/02/16 02:35:18;;;;;;;4.43;4.03;;;;;;;-146.29;100.00;59205.81;5028232;28;20168;-69
2024/02/16 02:37:43;;;;;;;8.97;4.10;;;;;;;-146.29;100.00;59205.81;5036360;28;21049;-68
2024/02/16 02:40:09;;;;;;;5.40;3.70;;;;;;;-146.29;100.00;59205.81;5028964;28;20487;-68
2024/02/16 02:42:35;;;;;;;6.00;4.63;;;;;;;-146.29;100.00;59205.81;5036512;28;20589;-69
2024/02/16 02:45:01;;;;;;;3.80;3.10;;;;;;;-146.29;100.00;59205.81;5030315;28;20538;-68
2024/02/16 02:47:27;;;;;;;5.40;3.70;;;;;;;-146.29;100.00;59205.81;5028329;28;20460;-68
2024/02/16 02:49:52;;;;;;;6.67;3.57;;;;;;;-146.29;100.00;59205.81;5031896;28;21005;-70
2024/02/16 02:52:18;;;;;;;4.50;3.10;;;;;;;-146.29;100.00;59205.81;5028405;28;20275;-70
2024/02/16 02:54:44;;;;;;;3.73;3.13;;;;;;;-146.29;100.00;59205.81;5029411;28;20182;-70
2024/02/16 02:57:09;;;;;;;4.80;2.80;;;;;;;-146.29;100.00;59205.81;5040029;28;20434;-69
2024/02/16 02:59:34;;;;;;;3.50;2.77;;;;;;;-146.29;100.00;59205.81;5027762;28;20259;-69
2024/02/16 03:02:00;;;;;;;4.10;3.17;;;;;;;-146.29;100.00;59205.81;5030567;28;20214;-69
2024/02/16 03:04:25;;;;;;;4.07;2.80;;;;;;;-146.29;100.00;59205.81;5026472;28;20184;-68
2024/02/16 03:06:52;;;;;;;4.30;2.93;;;;;;;-146.29;100.00;59205.81;5029919;28;20239;-69
2024/02/16 03:09:17;;;;;;;3.30;2.90;;;;;;;-146.29;100.00;59205.81;5032816;28;20179;-69
2024/02/16 03:11:43;;;;;;;2.80;2.60;;;;;;;-146.29;100.00;59205.81;5027418;28;20855;-69
2024/02/16 03:14:08;;;;;;;3.33;2.90;;;;;;;-146.29;100.00;59205.81;5032496;28;20198;-69
2024/02/16 03:16:34;;;;;;;4.57;2.53;;;;;;;-146.29;100.00;59205.81;5038456;28;20256;-71
2024/02/16 03:18:59;;;;;;;3.80;3.00;;;;;;;-146.29;100.00;59205.81;5031879;28;20267;-69
2024/02/16 03:21:25;;;;;;;3.10;2.50;;;;;;;-146.29;100.00;59205.81;5037995;28;20218;-69
2024/02/16 03:23:50;;;;;;;3.07;2.37;;;;;;;-146.29;100.00;59205.81;5033174;28;20183;-68
2024/02/16 03:26:20;;;;;;;2.97;2.67;;;;;;;-146.29;100.00;59205.81;5032409;28;20290;-70
2024/02/16 03:28:48;;;;;;;2.87;2.60;;;;;;;-146.29;100.00;59205.81;5032749;28;20671;-69
2024/02/16 03:31:21;;;;;;;3.53;3.10;;;;;;;-146.29;100.00;59205.81;5032518;28;20947;-71
2024/02/16 03:33:48;;;;;;;4.37;3.10;;;;;;;-146.29;100.00;59205.81;5032224;28;20450;-69
2024/02/16 03:36:14;;;;;;;4.50;3.00;;;;;;;-146.29;100.00;59205.81;5039857;28;20434;-70
2024/02/16 03:38:47;;;;;;;4.17;2.87;;;;;;;-146.29;100.00;59205.81;5031678;28;20426;-70
2024/02/16 03:41:14;;;;;;;4.30;3.10;;;;;;;-146.29;100.00;59205.81;5038762;28;20935;-70
2024/02/16 03:43:39;;;;;;;3.73;3.40;;;;;;;-146.29;100.00;59205.81;5039636;28;20417;-69
2024/02/16 03:46:05;;;;;;;5.80;3.63;;;;;;;-146.29;100.00;59205.81;5041015;28;20481;-68
2024/02/16 03:48:30;;;;;;;4.83;2.93;;;;;;;-146.29;100.00;59205.81;5039133;28;20191;-69
2024/02/16 03:50:56;;;;;;;3.57;2.87;;;;;;;-146.29;100.00;59205.81;5034419;28;20271;-69
2024/02/16 03:53:21;;;;;;;5.13;2.97;;;;;;;-146.29;100.00;59205.81;5034255;28;20669;-70
2024/02/16 03:55:46;;;;;;;4.47;2.90;;;;;;;-146.29;100.00;59205.81;5031507;28;20720;-69
2024/02/16 03:58:12;;;;;;;3.47;3.03;;;;;;;-146.29;100.00;59205.81;5030798;28;20270;-69
2024/02/16 04:00:38;;;;;;;4.37;2.80;;;;;;;-146.29;100.00;59205.81;5045964;28;20176;-69
2024/02/16 04:03:04;;;;;;;5.93;3.30;;;;;;;-146.29;100.00;59205.81;5030936;28;20202;-69
2024/02/16 04:05:32;;;;;;;4.80;3.30;;;;;;;-146.29;100.00;59205.81;5037710;28;20246;-69
2024/02/16 04:08:01;;;;;;;3.77;3.10;;;;;;;-146.29;100.00;59205.81;5034350;28;20443;-69
2024/02/16 04:10:28;;;;;;;5.13;3.43;;;;;;;-146.29;100.00;59205.81;5031771;28;20429;-69
2024/02/16 04:12:53;;;;;;;5.43;3.40;;;;;;;-146.29;100.00;59205.81;5047465;28;20487;-69
2024/02/16 04:15:19;;;;;;;4.10;3.20;;;;;;;-146.29;100.00;59205.81;5030733;28;20422;-71
2024/02/16 04:17:44;;;;;;;4.30;3.17;;;;;;;-146.29;100.00;59205.81;5038448;28;20212;-70
2024/02/16 04:20:11;;;;;;;3.60;3.03;;;;;;;-146.29;100.00;59205.81;5033395;28;20688;-69
2024/02/16 04:22:37;;;;;;;4.80;3.20;;;;;;;-146.29;100.00;59205.81;5040581;28;20183;-68
2024/02/16 04:25:04;;;;;;;3.00;2.70;;;;;;;-146.29;100.00;59205.81;5033913;28;20434;-70
2024/02/16 04:27:29;;;;;;;6.03;3.27;;;;;;;-146.29;100.00;59205.81;5022020;28;20731;-70
2024/02/16 04:29:55;;;;;;;4.83;3.20;;;;;;;-146.29;100.00;59205.81;5027333;28;20437;-68
2024/02/16 04:32:20;;;;;;;6.40;3.67;;;;;;;-146.29;100.00;59205.81;5031031;28;20180;-69
2024/02/16 04:34:46;;;;;;;3.30;3.00;;;;;;;-146.29;100.00;59205.81;5037045;28;20188;-69
2024/02/16 04:37:13;;;;;;;4.20;3.27;;;;;;;-146.29;100.00;59205.81;5032322;28;20791;-69
2024/02/16 04:39:38;;;;;;;6.13;4.30;;;;;;;-146.29;100.00;59205.81;5030310;28;20554;-68
2024/02/16 04:42:04;;;;;;;7.23;4.90;;;;;;;-146.29;100.00;59205.81;5035365;28;20430;-69
2024/02/16 04:44:29;;;;;;;6.60;5.23;;;;;;;-146.29;100.00;59205.81;5030159;28;20289;-68
2024/02/16 04:46:55;;;;;;;8.37;5.10;;;;;;;-146.29;100.00;59205.81;5029438;28;20545;-68
2024/02/16 04:49:21;;;;;;;4.07;3.63;;;;;;;-146.29;100.00;59205.81;5030286;28;20184;-70
2024/02/16 04:51:47;;;;;;;4.70;4.20;;;;;;;-146.29;100.00;59205.81;5029215;28;20677;-69
2024/02/16 04:54:13;;;;;;;6.37;4.03;;;;;;;-146.29;100.00;59205.81;5032037;28;20426;-68
2024/02/16 04:56:39;;;;;;;6.20;4.20;;;;;;;-146.29;100.00;59205.81;5030052;28;20211;-67
2024/02/16 04:59:05;;;;;;;7.23;4.73;;;;;;;-146.29;100.00;59205.81;5031627;28;20445;-68
2024/02/16 05:01:31;;;;;;;5.37;4.00;;;;;;;-146.29;100.00;59205.81;5023972;28;20430;-68
2024/02/16 05:03:58;;;;;;;4.03;3.63;;;;;;;-146.29;100.00;59205.81;5034032;28;20180;-70
2024/02/16 05:06:24;;;;;;;7.37;4.00;;;;;;;-146.29;100.00;59205.81;5001508;28;20494;-68
2024/02/16 05:08:50;;;;;;;10.30;4.57;;;;;;;-146.29;100.00;59205.81;5043425;28;20461;-68
2024/02/16 05:11:15;;;;;;;6.10;4.60;;;;;;;-146.29;100.00;59205.81;5034503;28;20180;-69
2024/02/16 05:13:42;;;;;;;8.90;3.90;;;;;;;-146.29;100.00;59205.81;5032960;28;20187;-68
2024/02/16 05:16:11;;;;;;;7.50;4.50;;;;;;;-146.29;100.00;59205.81;5033040;28;20301;-69
2024/02/16 05:18:37;;;;;;;6.97;4.87;;;;;;;-146.29;100.00;59205.81;5040628;28;20462;-68
2024/02/16 05:21:03;;;;;;;7.53;6.70;;;;;;;-146.29;100.00;59205.81;5028915;28;20441;-68
2024/02/16 05:23:29;;;;;;;7.80;5.30;;;;;;;-146.29;100.00;59205.81;5029781;28;20431;-68
2024/02/16 05:25:54;;;;;;;8.97;4.80;;;;;;;-146.29;100.00;59205.81;5037261;28;20219;-69
2024/02/16 05:28:20;;;;;;;6.00;3.70;;;;;;;-146.29;100.00;59205.81;5041130;28;20262;-70
2024/02/16 05:30:45;;;;;;;5.20;4.23;;;;;;;-146.29;100.00;59205.81;5032053;28;20191;-69
2024/02/16 05:33:11;;;;;;;8.87;4.50;;;;;;;-146.29;100.00;59205.81;5040355;28;20175;-69
2024/02/16 05:35:39;;;;;;;4.50;4.03;;;;;;;-146.29;100.00;59205.81;5032295;28;20281;-69
2024/02/16 05:38:10;;;;;;;8.73;4.20;;;;;;;-146.29;100.00;59205.81;5028249;28;20321;-69
2024/02/16 05:40:53;;;;;;;5.80;4.00;;;;;;;-146.29;100.00;59205.81;5027540;28;20459;-69
2024/02/16 05:43:20;;;;;;;6.00;4.10;;;;;;;-146.29;100.00;59205.81;5027578;28;20491;-72
2024/02/16 05:45:46;;;;;;;4.40;3.90;;;;;;;-146.29;100.00;59205.81;5046156;28;20453;-69
2024/02/16 05:48:11;;;;;;;14.40;5.83;;;;;;;-146.29;100.00;59205.81;5030780;28;20429;-69
2024/02/16 05:50:37;;;;;;;11.20;5.10;;;;;;;-146.29;100.00;59205.81;5033185;28;21048;-68
2024/02/16 05:53:03;;;;;;;5.93;4.00;;;;;;;-146.29;100.00;59205.81;5031845;28;20203;-69
2024/02/16 05:55:28;;;;;;;6.80;3.93;;;;;;;-146.29;100.00;59205.81;5023189;28;20211;-69
2024/02/16 05:57:54;;;;;;;8.77;4.67;;;;;;;-146.29;100.00;59205.81;5028625;28;20242;-69
2024/02/16 06:00:21;;;;;;;6.43;4.37;;;;;;;-146.29;100.00;59205.81;5034129;28;20186;-69
2024/02/16 06:02:47;;;;;;;6.17;4.27;;;;;;;-146.29;100.00;59205.81;5032376;28;20184;-69
2024/02/16 06:05:13;;;;;;;6.73;4.83;;;;;;;-146.29;100.00;59205.81;5035275;28;20584;-70
2024/02/16 06:07:38;;;;;;;7.50;4.00;;;;;;;-146.29;100.00;59205.81;5034156;28;20210;-70
2024/02/16 06:10:07;;;;;;;7.10;4.50;;;;;;;-146.29;100.00;59205.81;5031492;28;20184;-69
2024/02/16 06:12:33;;;;;;;7.00;4.53;;;;;;;-146.29;100.00;59205.81;5038792;28;20179;-70
2024/02/16 06:14:59;;;;;;;4.67;3.77;;;;;;;-146.29;100.00;59205.81;5015413;28;21186;-69
2024/02/16 06:17:24;;;;;;;4.97;4.00;;;;;;;-146.29;100.00;59205.81;5035237;28;20446;-70
2024/02/16 06:19:50;;;;;;;4.00;3.17;;;;;;;-146.29;100.00;59205.81;5035979;28;20880;-69
2024/02/16 06:22:16;;;;;;;5.63;3.60;;;;;;;-146.29;100.00;59205.81;5032135;28;20218;-70
2024/02/16 06:24:41;;;;;;;5.10;4.53;;;;;;;-146.29;100.00;59205.81;5028363;28;20188;-68
2024/02/16 06:27:08;;;;;;;7.63;4.57;;;;;;;-146.29;100.00;59205.81;5033285;28;20208;-69
2024/02/16 06:29:34;;;;;;;4.93;4.03;;;;;;;-146.29;100.00;59205.81;5026969;28;20175;-69
2024/02/16 06:32:01;;;;;;;6.00;4.07;;;;;;;-146.29;100.00;59205.81;5031209;28;20826;-69
2024/02/16 06:34:27;;;;;;;11.23;3.87;;;;;;;-146.29;100.00;59205.81;5027979;28;20430;-70
2024/02/16 06:36:52;;;;;;;6.17;4.70;;;;;;;-146.29;100.00;59205.81;5027956;28;20443;-69
2024/02/16 06:39:19;;;;;;;6.93;4.33;;;;;;;-146.29;100.00;59205.81;5034017;28;20180;-70
2024/02/16 06:41:45;;;;;;;5.57;4.20;;;;;;;-146.29;100.00;59205.81;5028393;28;20241;-70
2024/02/16 06:44:11;;;;;;;6.63;4.47;;;;;;;-146.29;100.00;59205.81;5030000;28;20423;-70
2024/02/16 06:46:37;;;;;;;4.90;3.73;;;;;;;-146.29;100.00;59205.81;5038573;28;21042;-69
2024/02/16 06:49:02;;;;;;;7.90;3.73;;;;;;;-146.29;100.00;59205.81;5028415;28;20506;-69
2024/02/16 06:51:28;;;;;;;5.17;4.17;;;;;;;-146.29;100.00;59205.81;5040332;28;20180;-69
2024/02/16 06:53:54;;;;;;;8.33;3.93;;;;;;;-146.29;100.00;59205.81;5027448;28;20180;-69
2024/02/16 06:56:20;;;;;;;4.03;3.53;;;;;;;-146.29;100.00;59205.81;5027650;28;20439;-70
2024/02/16 06:58:46;;;;;;;4.57;3.60;;;;;;;-146.29;100.00;59205.81;5038201;28;20428;-69
2024/02/16 07:01:14;;;;;;;5.10;4.27;;;;;;;-146.29;100.00;59205.81;5035860;28;20187;-70
2024/02/16 07:03:40;;;;;;;7.53;4.50;;;;;;;-146.29;100.00;59205.81;5028363;28;20613;-68
2024/02/16 07:06:09;;;;;;;4.63;3.60;;;;;;;-146.29;100.00;59205.81;5027458;28;20966;-69
2024/02/16 07:08:36;;;;;;;5.93;4.50;;;;;;;-146.29;100.00;59205.81;5038078;28;20420;-70
2024/02/16 07:11:03;;;;;;;12.93;5.30;;;;;;;-146.29;100.00;59205.81;5038963;28;20922;-69
2024/02/16 07:13:28;;;;;;;8.17;6.07;;;;;;;-146.29;100.00;59205.81;5035743;28;20813;-68
2024/02/16 07:15:54;;;;;;;9.40;6.27;;;;;;;-146.29;100.00;59205.81;5039122;28;20503;-69
2024/02/16 07:18:19;;;;;;;9.03;5.80;;;;;;;-146.29;100.00;59205.81;5029941;28;20190;-69
2024/02/16 07:20:45;;;;;;;8.70;5.60;;;;;;;-146.29;100.00;59205.81;5028031;28;20775;-69
2024/02/16 07:23:10;;;;;;;8.07;5.13;;;;;;;-146.29;100.00;59205.81;5037711;28;20264;-68
2024/02/16 07:25:36;;;;;;;8.60;5.40;;;;;;;-146.29;100.00;59205.81;5027574;28;20261;-68
2024/02/16 07:28:01;;;;;;;7.70;5.40;;;;;;;-146.29;100.00;59205.81;5033969;28;20194;-69
2024/02/16 07:30:27;;;;;;;11.83;9.50;;;;;;;-146.29;100.00;59205.81;5038081;28;20579;-69
2024/02/16 07:32:52;;;;;;;12.40;8.77;;;;;;;-146.29;100.00;59205.81;5027887;28;20172;-69
2024/02/16 07:35:19;;;;;;;10.03;6.17;;;;;;;-146.29;100.00;59205.81;5042064;28;20256;-70
2024/02/16 07:37:44;;;;;;;8.83;5.23;;;;;;;-146.29;100.00;59205.81;5033488;28;20213;-70
2024/02/16 07:40:10;;;;;;;10.63;5.83;;;;;;;-146.29;100.00;59205.81;5029914;28;21166;-70
2024/02/16 07:42:40;;;;;;;10.63;5.00;;;;;;;-146.29;100.00;59205.81;5026083;28;20172;-70
2024/02/16 07:45:06;;;;;;;9.37;5.80;;;;;;;-146.29;100.00;59205.81;5022913;28;20189;-70
2024/02/16 07:47:31;;;;;;;8.70;6.17;;;;;;;-146.29;100.00;59205.81;5011654;28;20461;-70
2024/02/16 07:49:57;;;;;;;9.53;6.43;;;;;;;-146.29;100.00;59205.81;5027851;28;20442;-71
2024/02/16 07:52:22;;;;;;;5.67;5.10;;;;;;;-146.29;100.00;59205.81;5031700;28;20638;-70
2024/02/16 07:54:48;;;;;;;6.73;4.93;;;;;;;-146.29;100.00;59205.81;5027161;28;20184;-69
2024/02/16 07:57:14;;;;;;;6.03;5.43;;;;;;;-146.29;100.00;59205.81;5023678;28;20235;-70
2024/02/16 07:59:40;;;;;;;14.93;5.90;;;;;;;-146.29;100.00;59205.81;5027794;28;20192;-70
2024/02/16 08:02:07;;;;;;;6.70;5.43;;;;;;;-146.29;100.00;59205.81;5029253;28;20433;-71
2024/02/16 08:04:32;;;;;;;7.40;5.43;;;;;;;-146.29;100.00;59205.81;5029967;28;20257;-72
2024/02/16 08:06:58;;;;;;;5.40;4.90;;;;;;;-146.29;100.00;59205.81;5037391;28;20816;-70
2024/02/16 08:09:23;;;;;;;7.33;5.80;;;;;;;-146.29;100.00;59205.81;5029153;28;20191;-70
2024/02/16 08:11:49;;;;;;;6.10;5.10;;;;;;;-146.29;100.00;59205.81;5039981;28;20184;-70
2024/02/16 08:14:14;;;;;;;14.37;5.70;;;;;;;-146.29;100.00;59205.81;5038584;28;20218;-70
2024/02/16 08:16:40;;;;;;;6.50;4.90;;;;;;;-146.29;100.00;59205.81;5034563;28;20206;-70
2024/02/16 08:19:05;;;;;;;8.60;5.23;;;;;;;-146.29;100.00;59205.81;5029622;28;20190;-70
2024/02/16 08:21:31;;;;;;;7.60;4.57;;;;;;;-146.29;100.00;59205.81;5031955;28;20211;-69
2024/02/16 08:23:56;;;;;;;9.50;5.37;;;;;;;-146.29;100.00;59205.81;5032288;28;20920;-70
2024/02/16 08:26:21;;;;;;;7.50;5.00;;;;;;;-146.29;100.00;59205.81;5029214;28;20214;-70
2024/02/16 08:28:47;;;;;;;15.27;5.30;;;;;;;-146.29;100.00;59205.81;5030626;28;20342;-70
2024/02/16 08:31:17;;;;;;;8.50;5.00;;;;;;;-146.29;100.00;59205.81;5030776;28;20807;-69
2024/02/16 08:33:44;;;;;;;8.33;4.60;;;;;;;-146.29;100.00;59205.81;5030605;28;20191;-71
2024/02/16 08:36:09;;;;;;;9.60;4.90;;;;;;;-146.29;100.00;59205.81;5030608;28;20443;-70
2024/02/16 08:38:36;;;;;;;8.07;4.60;;;;;;;-146.29;100.00;59205.81;5029559;28;20418;-70
2024/02/16 08:41:03;;;;;;;11.10;5.10;;;;;;;-146.29;100.00;59205.81;5030898;28;20294;-69
2024/02/16 08:43:29;;;;;;;7.10;3.90;;;;;;;-146.29;100.00;59205.81;5037786;28;20422;-69
2024/02/16 08:45:54;;;;;;;6.87;4.00;;;;;;;-146.29;100.00;59205.81;5028916;28;20465;-70
2024/02/16 08:48:20;;;;;;;5.37;3.90;;;;;;;-146.29;100.00;59205.81;5029896;28;20238;-70
2024/02/16 08:50:45;;;;;;;6.33;3.50;;;;;;;-146.29;100.00;59205.81;5030457;28;20204;-70
2024/02/16 08:53:11;;;;;;;5.20;3.67;;;;;;;-146.29;100.00;59205.81;5031050;28;20207;-71
2024/02/16 08:55:36;;;;;;;4.67;2.80;;;;;;;-146.29;100.00;59205.81;5029679;28;20265;-70
2024/02/16 08:58:01;;;;;;;9.37;3.27;;;;;;;-146.29;100.00;59205.81;5032217;28;20290;-70
2024/02/16 09:00:28;;;;;;;3.70;2.60;;;;;;;-146.29;100.00;59205.81;5032695;28;20208;-71
2024/02/16 09:02:53;;;;;;;4.17;2.40;;;;;;;-146.29;100.00;59205.81;5038689;28;20267;-71
2024/02/16 09:05:19;;;;;;;5.37;2.10;;;;;;;-146.29;100.00;59205.81;5033048;28;20502;-71
2024/02/16 09:07:47;;;;;;;5.83;2.33;;;;;;;-146.29;100.00;59205.81;5035339;28;20214;-70
2024/02/16 09:10:14;;;;;;;4.13;1.93;;;;;;;-146.29;100.00;59205.81;5030097;28;20476;-70
2024/02/16 09:12:40;;;;;;;3.97;1.70;;;;;;;-146.29;100.00;59205.81;5030183;28;20418;-68
2024/02/16 09:15:06;;;;;;;4.13;1.77;;;;;;;-146.29;100.00;59205.81;5029318;28;20441;-69
2024/02/16 09:17:31;;;;;;;2.77;1.57;;;;;;;-146.29;100.00;59205.81;5031859;28;20208;-71
2024/02/16 09:19:57;;;;;;;5.40;1.90;;;;;;;-146.29;100.00;59205.81;5031903;28;20480;-70
2024/02/16 09:22:22;;;;;;;2.70;1.50;;;;;;;-146.29;100.00;59205.81;5031498;28;20259;-69
2024/02/16 09:24:48;;;;;;;7.80;1.93;;;;;;;-146.29;100.00;59205.81;5031333;28;20211;-70
2024/02/16 09:27:14;;;;;;;2.63;1.73;;;;;;;-146.29;100.00;59205.81;5028017;28;20298;-71
2024/02/16 09:29:39;;;;;;;3.60;1.80;;;;;;;-146.29;100.00;59205.81;5032876;28;20195;-73
2024/02/16 09:32:05;;;;;;;4.20;1.70;;;;;;;-146.29;100.00;59205.81;5032932;28;20183;-72
2024/02/16 09:34:31;;;;;;;5.17;2.13;;;;;;;-146.29;100.00;59205.81;5037317;28;20195;-73
2024/02/16 09:36:56;;;;;;;3.33;2.30;;;;;;;-146.29;100.00;59205.81;5031641;28;20434;-73
2024/02/16 09:39:22;;;;;;;5.37;2.40;;;;;;;-146.29;100.00;59205.81;5029731;28;20239;-72
2024/02/16 09:41:52;;;;;;;5.50;2.00;;;;;;;-146.29;100.00;59205.81;5032025;28;20274;-73
2024/02/16 09:44:18;;;;;;;4.13;2.10;;;;;;;-146.29;100.00;59205.81;5031536;28;20198;-72
2024/02/16 09:46:43;;;;;;;1.83;1.70;;;;;;;-146.29;100.00;59205.81;5027986;28;21046;-72
2024/02/16 09:49:09;;;;;;;3.90;2.13;;;;;;;-146.29;100.00;59205.81;5053927;28;20186;-71
2024/02/16 09:51:38;;;;;;;3.07;2.00;;;;;;;-146.29;100.00;59205.81;5044454;28;20262;-70
2024/02/16 09:54:04;;;;;;;4.30;2.00;;;;;;;-146.29;100.00;59205.81;5028149;28;20419;-70
2024/02/16 09:56:29;;;;;;;1.80;1.37;;;;;;;-146.29;100.00;59205.81;5031179;28;21058;-71
2024/02/16 09:58:55;;;;;;;7.30;2.47;;;;;;;-146.29;100.00;59205.81;5034019;28;20577;-72
2024/02/16 10:01:22;;;;;;;4.30;2.17;;;;;;;-146.29;100.00;59205.81;5029543;28;20188;-73
2024/02/16 10:03:49;;;;;;;4.80;2.00;;;;;;;-146.29;100.00;59205.81;5032022;28;20199;-70
2024/02/16 10:06:15;;;;;;;5.87;2.00;;;;;;;-146.29;100.00;59205.81;5039306;28;20557;-72
2024/02/16 10:08:52;;;;;;;3.50;1.63;;;;;;;-146.29;100.00;59205.81;5027232;28;20517;-72
2024/02/16 10:11:19;;;;;;;2.73;1.87;;;;;;;-146.29;100.00;59205.81;5033122;28;20972;-72
2024/02/16 10:14:02;;;;;;;3.30;1.80;;;;;;;-146.29;100.00;59205.81;5026934;28;20430;-70
2024/02/16 10:16:28;;;;;;;4.40;1.87;;;;;;;-146.29;100.00;59205.81;5025050;28;20442;-70
2024/02/16 10:19:10;;;;;;;4.20;2.10;;;;;;;-146.29;100.00;59205.81;5028658;28;20418;-68
2024/02/16 10:21:35;;;;;;;5.33;2.10;;;;;;;-146.29;100.00;59205.81;5028709;28;20461;-71
2024/02/16 10:24:06;;;;;;;5.80;2.20;;;;;;;-146.29;100.00;59205.81;5028515;28;20817;-69
2024/02/16 10:26:32;;;;;;;3.10;1.90;;;;;;;-146.29;100.00;59205.81;5027693;28;20219;-71
2024/02/16 10:28:57;;;;;;;6.10;2.30;;;;;;;-146.29;100.00;59205.81;5028366;28;20422;-70
2024/02/16 10:31:30;;;;;;;4.60;2.07;;;;;;;-146.29;100.00;59205.81;5028904;28;20194;-71
2024/02/16 10:33:57;;;;;;;2.50;1.90;;;;;;;-146.29;100.00;59205.81;5028663;28;20187;-70
2024/02/16 10:36:24;;;;;;;2.47;2.00;;;;;;;-146.29;100.00;59205.81;5027367;28;20450;-71
2024/02/16 10:38:51;;;;;;;7.60;2.10;;;;;;;-146.29;100.00;59205.81;5030754;28;20421;-71
2024/02/16 10:41:18;;;;;;;13.50;2.17;;;;;;;-146.29;100.00;59205.81;5027256;28;20485;-70
2024/02/16 10:43:47;;;;;;;4.57;2.17;;;;;;;-146.29;100.00;59205.81;5028146;28;20463;-71
2024/02/16 10:46:16;;;;;;;4.00;2.10;;;;;;;-146.29;100.00;59205.81;5025986;28;20573;-70
2024/02/16 10:48:41;;;;;;;4.93;2.00;;;;;;;-146.29;100.00;59205.81;5028385;28;22095;-70
2024/02/16 10:51:08;;;;;;;4.40;2.00;;;;;;;-146.29;100.00;59205.81;5028509;28;20509;-71
2024/02/16 10:53:34;;;;;;;3.03;2.03;;;;;;;-146.29;100.00;59205.81;5028882;28;20887;-71
2024/02/16 10:56:01;;;;;;;3.83;1.93;;;;;;;-146.29;100.00;59205.81;5030871;28;20480;-71
2024/02/16 10:58:27;;;;;;;5.43;2.13;;;;;;;-146.29;100.00;59205.81;5027144;28;20241;-71
2024/02/16 11:00:54;;;;;;;5.50;2.20;;;;;;;-146.29;100.00;59205.81;5020152;28;20423;-70
2024/02/16 11:03:27;;;;;;;6.20;2.03;;;;;;;-146.29;100.00;59205.81;5026794;28;20426;-71
2024/02/16 11:05:53;;;;;;;5.60;2.50;;;;;;;-146.29;100.00;59205.81;5022948;28;20515;-70